Time;durP1;ratioP1;P1;durP2;ratioP2;P2;SDS_P1;SDS_P2;PMS_P1;PMS_P2;Temp;Humidity;BMP_temperature;BMP_pressure;BME280_temperature;BME280_humidity;BME280_pressure;Samples;Min_cycle;Max_cycle;Signal;HPM_P1;HPM_P2
2023/09/26 00:00:35;;;;;;;0.00;0.00;;;;;;;15.37;71.23;101096.97;5093106;28;20182;-79
2023/09/26 00:03:01;;;;;;;0.00;0.00;;;;;;;15.35;71.31;101113.03;5094353;28;20205;-79
2023/09/26 00:05:27;;;;;;;0.00;0.00;;;;;;;15.15;71.67;101105.44;5093370;28;20237;-79
2023/09/26 00:07:52;;;;;;;0.00;0.00;;;;;;;15.35;71.64;101120.47;5093469;28;20204;-79
2023/09/26 00:10:18;;;;;;;0.00;0.00;;;;;;;15.42;71.90;101126.28;5093349;28;20237;-79
2023/09/26 00:12:44;;;;;;;0.00;0.00;;;;;;;15.40;72.01;101120.28;5093880;28;20210;-79
2023/09/26 00:15:11;;;;;;;0.00;0.00;;;;;;;15.47;71.26;101115.06;5092787;28;20590;-79
2023/09/26 00:17:36;;;;;;;0.00;0.00;;;;;;;15.09;71.79;101095.72;5092552;28;20222;-78
2023/09/26 00:20:09;;;;;;;0.33;0.33;;;;;;;14.72;72.85;101080.69;5093296;28;20655;-77
2023/09/26 00:22:36;;;;;;;0.00;0.00;;;;;;;14.51;73.34;101077.78;5092044;28;20194;-79
2023/09/26 00:25:02;;;;;;;0.43;0.20;;;;;;;14.32;74.11;101085.47;5092079;28;20184;-79
2023/09/26 00:27:27;;;;;;;0.30;0.30;;;;;;;14.27;74.65;101090.00;5093868;28;20220;-79
2023/09/26 00:29:53;;;;;;;0.33;0.33;;;;;;;14.37;75.08;101094.38;5093483;28;20651;-78
2023/09/26 00:32:18;;;;;;;0.00;0.00;;;;;;;14.40;75.14;101095.69;5091304;28;20183;-77
2023/09/26 00:34:43;;;;;;;0.00;0.00;;;;;;;14.42;75.42;101102.47;5091505;28;20205;-78
2023/09/26 00:37:09;;;;;;;0.00;0.00;;;;;;;14.54;75.48;101104.63;5092843;28;20556;-78
2023/09/26 00:39:36;;;;;;;0.00;0.00;;;;;;;14.62;75.35;101103.03;5091621;28;20185;-78
2023/09/26 00:42:01;;;;;;;0.00;0.00;;;;;;;14.32;75.62;101089.06;5091019;28;20208;-77
2023/09/26 00:44:26;;;;;;;0.00;0.00;;;;;;;14.36;76.42;101094.72;5092783;28;20202;-79
2023/09/26 00:46:52;;;;;;;0.00;0.00;;;;;;;14.47;76.32;101096.88;5092846;28;20260;-79
2023/09/26 00:49:17;;;;;;;0.00;0.00;;;;;;;14.66;76.32;101104.81;5093223;28;20213;-78
2023/09/26 00:51:43;;;;;;;0.00;0.00;;;;;;;14.84;76.42;101109.16;5091938;28;20185;-79
2023/09/26 00:54:10;;;;;;;0.00;0.00;;;;;;;14.24;76.84;101089.81;5092925;28;20198;-78
2023/09/26 00:56:38;;;;;;;0.00;0.00;;;;;;;14.64;76.63;101111.75;5092373;28;20174;-78
2023/09/26 00:59:04;;;;;;;0.00;0.00;;;;;;;14.77;76.84;101110.81;5091219;28;20230;-77
2023/09/26 01:01:31;;;;;;;0.30;0.30;;;;;;;14.59;76.76;101107.22;5092218;28;20209;-78
2023/09/26 01:03:57;;;;;;;0.40;0.40;;;;;;;14.86;76.57;101111.59;5091324;28;20202;-78
2023/09/26 01:06:23;;;;;;;0.07;0.07;;;;;;;15.13;75.54;101104.94;5092016;28;20603;-79
2023/09/26 01:08:48;;;;;;;0.40;0.40;;;;;;;15.23;74.84;101110.13;5091280;28;20233;-78
2023/09/26 01:11:15;;;;;;;0.10;0.10;;;;;;;15.36;73.88;101103.63;5091882;28;20201;-80
2023/09/26 01:13:40;;;;;;;0.00;0.00;;;;;;;15.38;73.19;101101.34;5090816;28;20292;-78
2023/09/26 01:16:16;;;;;;;0.23;0.23;;;;;;;15.68;72.38;101117.97;5091840;28;20229;-80
2023/09/26 01:18:42;;;;;;;0.00;0.00;;;;;;;15.80;71.45;101111.78;5093409;28;20184;-80
2023/09/26 01:21:08;;;;;;;0.00;0.00;;;;;;;15.51;71.60;101084.97;5092545;28;20629;-80
2023/09/26 01:23:36;;;;;;;0.00;0.00;;;;;;;16.00;70.75;101125.63;5093043;28;20201;-79
2023/09/26 01:26:01;;;;;;;0.00;0.00;;;;;;;15.36;71.10;101065.06;5093884;28;20213;-80
2023/09/26 01:28:26;;;;;;;0.00;0.00;;;;;;;15.64;71.48;101081.22;5093050;28;20267;-79
2023/09/26 01:30:52;;;;;;;0.30;0.30;;;;;;;15.52;71.50;101078.31;5091573;28;20182;-80
2023/09/26 01:33:19;;;;;;;3.20;0.57;;;;;;;15.54;71.46;101073.28;5092027;28;20210;-77
2023/09/26 01:35:45;;;;;;;0.43;0.43;;;;;;;15.54;71.32;101081.53;5090286;28;20230;-78
2023/09/26 01:38:11;;;;;;;0.00;0.00;;;;;;;15.52;71.16;101084.63;5091616;28;20595;-77
2023/09/26 01:40:36;;;;;;;0.27;0.27;;;;;;;15.59;71.05;101073.94;5089715;28;20655;-77
2023/09/26 01:43:01;;;;;;;0.03;0.03;;;;;;;15.63;70.79;101080.41;5091179;28;20208;-77
2023/09/26 01:45:27;;;;;;;0.00;0.00;;;;;;;15.61;70.81;101081.84;5090342;28;20534;-79
2023/09/26 01:47:52;;;;;;;0.00;0.00;;;;;;;15.83;70.44;101089.88;5091328;28;20528;-78
2023/09/26 01:50:19;;;;;;;0.00;0.00;;;;;;;15.97;69.55;101103.44;5090836;28;20190;-77
2023/09/26 01:52:46;;;;;;;0.00;0.00;;;;;;;15.69;70.17;101078.28;5090082;28;20730;-78
2023/09/26 01:55:22;;;;;;;0.00;0.00;;;;;;;15.66;70.13;101074.25;5091413;28;20182;-78
2023/09/26 01:57:49;;;;;;;0.00;0.00;;;;;;;16.10;69.40;101104.34;5090139;28;20246;-78
2023/09/26 02:00:15;;;;;;;3.20;0.73;;;;;;;15.97;69.46;101086.91;5090758;28;20247;-77
2023/09/26 02:02:46;;;;;;;2.17;0.50;;;;;;;15.95;69.51;101092.75;5089833;28;20674;-78
2023/09/26 02:05:14;;;;;;;0.40;0.40;;;;;;;15.93;68.87;101084.00;5091348;28;20253;-77
2023/09/26 02:07:39;;;;;;;0.00;0.00;;;;;;;15.86;69.11;101082.91;5091398;28;20759;-77
2023/09/26 02:10:06;;;;;;;0.00;0.00;;;;;;;15.89;69.45;101091.31;5090782;28;20181;-78
2023/09/26 02:12:35;;;;;;;0.53;0.47;;;;;;;15.60;70.57;101085.75;5089809;28;20244;-78
2023/09/26 02:15:03;;;;;;;0.00;0.00;;;;;;;15.54;70.27;101070.53;5089766;28;20186;-77
2023/09/26 02:17:29;;;;;;;0.00;0.00;;;;;;;15.37;71.03;101060.38;5091484;28;20170;-77
2023/09/26 02:19:54;;;;;;;0.00;0.00;;;;;;;15.71;70.42;101087.00;5094871;28;20721;-78
2023/09/26 02:22:20;;;;;;;0.20;0.20;;;;;;;15.51;70.34;101068.44;5094444;28;20189;-78
2023/09/26 02:24:45;;;;;;;0.00;0.00;;;;;;;15.28;70.06;101046.63;5094960;28;20232;-77
2023/09/26 02:27:10;;;;;;;0.00;0.00;;;;;;;15.05;70.49;101031.47;5093904;28;20277;-80
2023/09/26 02:29:36;;;;;;;0.00;0.00;;;;;;;15.16;70.57;101043.72;5094640;28;20223;-78
2023/09/26 02:32:01;;;;;;;0.00;0.00;;;;;;;15.03;70.46;101036.47;5093124;28;20193;-77
2023/09/26 02:34:26;;;;;;;0.03;0.03;;;;;;;14.76;71.31;101027.47;5094721;28;20285;-78
2023/09/26 02:36:51;;;;;;;0.00;0.00;;;;;;;14.58;71.95;101029.41;5094951;28;20170;-77
2023/09/26 02:39:17;;;;;;;0.00;0.00;;;;;;;14.67;72.39;101032.16;5093514;28;20576;-79
2023/09/26 02:41:42;;;;;;;0.00;0.00;;;;;;;14.32;73.38;101022.25;5094268;28;20206;-78
2023/09/26 02:44:07;;;;;;;0.00;0.00;;;;;;;14.70;73.23;101048.00;5093176;28;20296;-78
2023/09/26 02:46:33;;;;;;;0.20;0.20;;;;;;;14.79;73.13;101053.50;5093289;28;20217;-78
2023/09/26 02:49:00;;;;;;;0.00;0.00;;;;;;;14.88;72.39;101046.84;5095174;28;20209;-78
2023/09/26 02:51:26;;;;;;;0.00;0.00;;;;;;;14.78;72.33;101047.22;5094144;28;20287;-78
2023/09/26 02:53:51;;;;;;;0.20;0.10;;;;;;;14.64;71.83;101035.56;5093054;28;20288;-78
2023/09/26 02:56:16;;;;;;;0.00;0.00;;;;;;;14.44;72.26;101030.69;5092969;28;20184;-78
2023/09/26 02:58:41;;;;;;;0.00;0.00;;;;;;;14.32;72.69;101033.22;5094462;28;20184;-77
2023/09/26 03:01:07;;;;;;;0.00;0.00;;;;;;;14.41;72.85;101047.81;5093928;28;20185;-78
2023/09/26 03:03:32;;;;;;;0.00;0.00;;;;;;;14.24;73.56;101032.91;5094308;28;20664;-78
2023/09/26 03:05:58;;;;;;;0.00;0.00;;;;;;;14.48;73.73;101056.44;5093161;28;20266;-79
2023/09/26 03:08:24;;;;;;;0.00;0.00;;;;;;;14.33;74.07;101038.44;5094291;28;20612;-79
2023/09/26 03:10:49;;;;;;;0.00;0.00;;;;;;;14.44;74.06;101047.19;5093752;28;20242;-79
2023/09/26 03:13:14;;;;;;;0.00;0.00;;;;;;;14.63;73.81;101053.19;5093760;28;20201;-77
2023/09/26 03:15:40;;;;;;;0.00;0.00;;;;;;;14.70;72.53;101042.50;5094295;28;20231;-78
2023/09/26 03:18:06;;;;;;;0.00;0.00;;;;;;;14.66;72.66;101041.53;5094009;28;20178;-78
2023/09/26 03:20:31;;;;;;;0.00;0.00;;;;;;;14.64;72.70;101046.56;5092259;28;20723;-77
2023/09/26 03:22:57;;;;;;;0.00;0.00;;;;;;;14.77;72.85;101042.03;5094010;28;20201;-78
2023/09/26 03:25:22;;;;;;;0.00;0.00;;;;;;;14.46;72.06;101014.69;5092850;28;20187;-78
2023/09/26 03:27:50;;;;;;;4.00;2.63;;;;;;;14.32;72.23;101030.47;5092403;28;20633;-78
2023/09/26 03:30:16;;;;;;;0.00;0.00;;;;;;;14.27;72.30;101026.78;5091337;28;20226;-78
2023/09/26 03:32:41;;;;;;;0.00;0.00;;;;;;;14.11;72.40;101020.13;5093724;28;20272;-78
2023/09/26 03:35:08;;;;;;;0.13;0.13;;;;;;;13.76;73.13;101008.25;5092590;28;20193;-79
2023/09/26 03:37:33;;;;;;;0.00;0.00;;;;;;;13.72;73.81;101006.44;5093767;28;20188;-78
2023/09/26 03:39:58;;;;;;;0.20;0.20;;;;;;;13.63;74.12;101004.50;5092099;28;20588;-78
2023/09/26 03:42:24;;;;;;;0.10;0.10;;;;;;;13.69;74.45;101025.19;5093223;28;20261;-78
2023/09/26 03:44:50;;;;;;;0.00;0.00;;;;;;;13.52;74.46;101016.88;5093448;28;20208;-78
2023/09/26 03:47:16;;;;;;;0.00;0.00;;;;;;;13.65;74.98;101031.63;5092786;28;20553;-79
2023/09/26 03:49:41;;;;;;;0.10;0.10;;;;;;;13.46;75.72;101014.63;5093824;28;20201;-78
2023/09/26 03:52:06;;;;;;;0.40;0.40;;;;;;;13.39;76.25;101026.03;5087072;28;20194;-77
2023/09/26 03:54:34;;;;;;;0.00;0.00;;;;;;;13.48;76.67;101032.38;5093326;28;20268;-78
2023/09/26 03:57:00;;;;;;;0.00;0.00;;;;;;;13.46;78.06;101036.56;5093137;28;20188;-79
2023/09/26 03:59:25;;;;;;;0.00;0.00;;;;;;;13.84;77.85;101048.66;5094498;28;20165;-80
2023/09/26 04:01:50;;;;;;;0.00;0.00;;;;;;;14.02;77.01;101048.69;5093271;28;20184;-79
2023/09/26 04:04:16;;;;;;;0.00;0.00;;;;;;;14.21;76.76;101052.81;5094572;28;20266;-80
2023/09/26 04:06:41;;;;;;;0.00;0.00;;;;;;;14.22;76.10;101048.94;5093003;28;20272;-79
2023/09/26 04:09:07;;;;;;;0.00;0.00;;;;;;;14.34;76.19;101048.31;5094429;28;20198;-78
2023/09/26 04:11:32;;;;;;;0.00;0.00;;;;;;;14.50;75.48;101032.97;5094308;28;20256;-79
2023/09/26 04:13:57;;;;;;;0.00;0.00;;;;;;;14.48;75.22;101031.69;5094451;28;20210;-79
2023/09/26 04:16:23;;;;;;;0.00;0.00;;;;;;;14.45;74.62;101035.06;5094244;28;20661;-80
2023/09/26 04:18:48;;;;;;;0.00;0.00;;;;;;;14.53;74.21;101023.25;5093483;28;20185;-79
2023/09/26 04:21:13;;;;;;;0.00;0.00;;;;;;;14.36;73.79;101012.25;5092179;28;20197;-79
2023/09/26 04:23:39;;;;;;;0.10;0.10;;;;;;;14.21;73.42;100999.78;5093958;28;20197;-79
2023/09/26 04:26:13;;;;;;;0.00;0.00;;;;;;;14.21;73.53;101010.78;5092645;28;20554;-80
2023/09/26 04:28:39;;;;;;;0.00;0.00;;;;;;;14.12;74.01;101008.00;5093817;28;20212;-80
2023/09/26 04:31:04;;;;;;;0.00;0.00;;;;;;;14.04;74.14;100997.81;5093593;28;20188;-79
2023/09/26 04:33:30;;;;;;;0.00;0.00;;;;;;;14.00;74.17;100988.59;5092841;28;20221;-78
2023/09/26 04:35:58;;;;;;;0.00;0.00;;;;;;;13.98;74.11;100999.09;5092738;28;20196;-79
2023/09/26 04:38:24;;;;;;;0.00;0.00;;;;;;;13.88;74.16;100978.22;5093989;28;20319;-79
2023/09/26 04:40:49;;;;;;;0.03;0.03;;;;;;;13.90;74.12;100986.97;5091655;28;20265;-79
2023/09/26 04:43:15;;;;;;;0.00;0.00;;;;;;;13.26;74.83;100958.34;5091565;28;20291;-79
2023/09/26 04:45:40;;;;;;;0.00;0.00;;;;;;;13.22;75.54;100966.41;5093651;28;20189;-79
2023/09/26 04:48:06;;;;;;;0.00;0.00;;;;;;;13.31;75.59;100980.16;5094177;28;20217;-79
2023/09/26 04:50:31;;;;;;;0.00;0.00;;;;;;;13.34;75.58;100968.56;5093355;28;20652;-79
2023/09/26 04:52:57;;;;;;;1.07;1.07;;;;;;;13.04;75.76;100960.00;5093652;28;20239;-79
2023/09/26 04:55:23;;;;;;;0.00;0.00;;;;;;;13.10;75.95;100972.44;5092380;28;20181;-77
2023/09/26 04:57:49;;;;;;;0.00;0.00;;;;;;;13.29;76.69;100985.94;5092073;28;20177;-77
2023/09/26 05:00:17;;;;;;;0.00;0.00;;;;;;;13.44;77.05;100990.19;5091587;28;20185;-78
2023/09/26 05:02:50;;;;;;;0.00;0.00;;;;;;;13.70;77.27;101013.06;5087510;28;20209;-77
2023/09/26 05:05:16;;;;;;;0.00;0.00;;;;;;;13.85;77.00;101016.50;5090592;28;20190;-77
2023/09/26 05:07:43;;;;;;;0.00;0.00;;;;;;;13.81;76.63;100999.06;5083527;28;20186;-78
2023/09/26 05:10:09;;;;;;;0.00;0.00;;;;;;;13.54;76.32;100978.94;5090925;28;20173;-78
2023/09/26 05:12:40;;;;;;;0.00;0.00;;;;;;;13.28;77.18;100980.78;5091634;28;20182;-79
2023/09/26 05:15:13;;;;;;;0.00;0.00;;;;;;;13.79;77.31;101006.81;5090663;28;20272;-77
2023/09/26 05:17:57;;;;;;;0.00;0.00;;;;;;;14.09;76.18;101027.06;5091880;28;20182;-77
2023/09/26 05:20:24;;;;;;;0.00;0.00;;;;;;;13.82;75.42;100990.50;5089692;28;20422;-78
2023/09/26 05:22:49;;;;;;;0.00;0.00;;;;;;;13.55;76.29;100988.00;5090337;28;20225;-79
2023/09/26 05:25:15;;;;;;;0.00;0.00;;;;;;;13.74;76.29;101007.75;5091734;28;20227;-78
2023/09/26 05:27:44;;;;;;;0.00;0.00;;;;;;;13.97;75.73;101016.69;5091566;28;20184;-77
2023/09/26 05:30:11;;;;;;;0.00;0.00;;;;;;;13.83;75.05;101007.78;5091251;28;20243;-78
2023/09/26 05:32:39;;;;;;;0.00;0.00;;;;;;;13.62;74.90;100997.41;5090736;28;20177;-78
2023/09/26 05:35:06;;;;;;;0.00;0.00;;;;;;;13.62;74.48;100993.84;5091593;28;20195;-77
2023/09/26 05:37:32;;;;;;;0.00;0.00;;;;;;;13.66;74.34;100992.88;5091970;28;20177;-78
2023/09/26 05:39:57;;;;;;;0.00;0.00;;;;;;;13.75;74.10;100997.59;5091748;28;20182;-77
2023/09/26 05:42:22;;;;;;;0.00;0.00;;;;;;;13.81;74.36;100999.88;5091145;28;20197;-78
2023/09/26 05:44:48;;;;;;;0.23;0.23;;;;;;;13.66;74.19;100984.63;5091763;28;20262;-78
2023/09/26 05:47:13;;;;;;;0.00;0.00;;;;;;;13.66;74.58;101003.06;5090709;28;20555;-77
2023/09/26 05:49:38;;;;;;;0.00;0.00;;;;;;;13.80;74.97;101020.22;5091962;28;20198;-77
2023/09/26 05:52:04;;;;;;;0.00;0.00;;;;;;;13.74;75.23;101015.19;5091907;28;20181;-79
2023/09/26 05:54:33;;;;;;;0.00;0.00;;;;;;;13.82;75.43;101025.41;5094667;28;20221;-79
2023/09/26 05:56:59;;;;;;;0.00;0.00;;;;;;;13.83;75.72;101024.25;5095730;28;20636;-81
2023/09/26 05:59:24;;;;;;;0.00;0.00;;;;;;;13.92;75.65;101033.34;5094682;28;20181;-80
2023/09/26 06:01:49;;;;;;;0.00;0.00;;;;;;;14.05;75.90;101029.66;5095104;28;20318;-78
2023/09/26 06:04:15;;;;;;;0.00;0.00;;;;;;;14.02;75.47;101021.22;5093738;28;20217;-79
2023/09/26 06:06:40;;;;;;;0.00;0.00;;;;;;;14.04;76.27;101024.50;5096572;28;20188;-78
2023/09/26 06:09:05;;;;;;;0.00;0.00;;;;;;;14.11;75.81;101020.13;5094383;28;20244;-79
2023/09/26 06:11:30;;;;;;;0.00;0.00;;;;;;;14.05;75.69;101023.34;5095319;28;20647;-80
2023/09/26 06:13:56;;;;;;;0.00;0.00;;;;;;;14.10;75.75;101032.25;5095516;28;20201;-79
2023/09/26 06:16:22;;;;;;;0.40;0.40;;;;;;;13.95;76.01;101016.22;5095696;28;20272;-80
2023/09/26 06:18:47;;;;;;;0.00;0.00;;;;;;;14.19;75.71;101037.78;5094147;28;20186;-79
2023/09/26 06:21:14;;;;;;;0.10;0.10;;;;;;;13.96;75.69;101023.31;5094613;28;20193;-78
2023/09/26 06:23:42;;;;;;;0.00;0.00;;;;;;;13.99;76.05;101022.69;5093596;28;20542;-79
2023/09/26 06:26:08;;;;;;;0.00;0.00;;;;;;;13.80;76.33;101002.94;5094655;28;20285;-80
2023/09/26 06:28:34;;;;;;;0.00;0.00;;;;;;;13.83;76.65;101021.50;5094115;28;20284;-78
2023/09/26 06:31:10;;;;;;;0.00;0.00;;;;;;;14.07;76.66;101038.38;5093464;28;20189;-78
2023/09/26 06:33:36;;;;;;;0.00;0.00;;;;;;;14.17;76.43;101043.56;5076494;28;20287;-78
2023/09/26 06:36:10;;;;;;;0.43;0.43;;;;;;;14.32;76.43;101036.81;5072926;28;20187;-78
2023/09/26 06:38:35;;;;;;;0.00;0.00;;;;;;;14.33;76.43;101034.88;5075830;28;20626;-78
2023/09/26 06:41:06;;;;;;;0.00;0.00;;;;;;;14.56;76.11;101047.34;5083492;28;20185;-80
2023/09/26 06:43:32;;;;;;;0.30;0.30;;;;;;;14.48;76.54;101043.50;5083230;28;20198;-81
2023/09/26 06:45:57;;;;;;;0.00;0.00;;;;;;;14.55;76.65;101046.56;5075564;28;20676;-79
2023/09/26 06:48:23;;;;;;;0.00;0.00;;;;;;;14.73;76.75;101061.09;5078227;28;20368;-79
2023/09/26 06:50:48;;;;;;;0.00;0.00;;;;;;;14.80;76.98;101061.44;5086335;28;20701;-80
2023/09/26 06:53:13;;;;;;;0.00;0.00;;;;;;;14.88;77.01;101066.09;5094937;28;20214;-79
2023/09/26 06:55:39;;;;;;;0.00;0.00;;;;;;;14.92;76.95;101062.72;5096084;28;20181;-79
2023/09/26 06:58:06;;;;;;;0.00;0.00;;;;;;;15.18;77.26;101078.03;5095745;28;20177;-79
2023/09/26 07:00:31;;;;;;;0.00;0.00;;;;;;;15.26;76.82;101070.91;5095561;28;20186;-80
2023/09/26 07:02:57;;;;;;;0.00;0.00;;;;;;;15.04;77.21;101054.59;5094697;28;20212;-80
2023/09/26 07:05:23;;;;;;;0.00;0.00;;;;;;;15.29;78.12;101061.19;5086321;28;20198;-79
2023/09/26 07:07:48;;;;;;;0.00;0.00;;;;;;;15.59;77.41;101075.84;5075746;28;20187;-79
2023/09/26 07:10:14;;;;;;;0.00;0.00;;;;;;;15.76;76.78;101084.06;5092966;28;20182;-79
2023/09/26 07:12:40;;;;;;;0.00;0.00;;;;;;;15.44;77.48;101058.72;5096092;28;20185;-80
2023/09/26 07:15:06;;;;;;;0.00;0.00;;;;;;;15.61;78.34;101079.09;5094682;28;20239;-80
2023/09/26 07:17:31;;;;;;;0.00;0.00;;;;;;;15.61;78.34;101070.84;5094500;28;20268;-80
2023/09/26 07:19:59;;;;;;;0.00;0.00;;;;;;;15.97;78.17;101090.47;5095643;28;20177;-79
2023/09/26 07:22:24;;;;;;;0.00;0.00;;;;;;;16.35;77.07;101090.44;5095355;28;20284;-80
2023/09/26 07:24:50;;;;;;;0.00;0.00;;;;;;;16.58;75.79;101082.63;5095604;28;20233;-80
2023/09/26 07:27:17;;;;;;;1.07;1.07;;;;;;;16.79;75.21;101082.66;5094293;28;20254;-80
2023/09/26 07:29:46;;;;;;;0.00;0.00;;;;;;;16.72;74.71;101076.06;5093540;28;20343;-79
2023/09/26 07:32:12;;;;;;;0.00;0.00;;;;;;;16.88;74.03;101075.09;5094915;28;20185;-79
2023/09/26 07:34:37;;;;;;;0.00;0.00;;;;;;;17.06;73.65;101078.50;5095392;28;20203;-79
2023/09/26 07:37:02;;;;;;;0.30;0.30;;;;;;;17.21;73.36;101080.66;5095489;28;20260;-79
2023/09/26 07:39:27;;;;;;;0.00;0.00;;;;;;;17.37;73.13;101088.28;5079325;28;20196;-76
2023/09/26 07:41:53;;;;;;;0.17;0.17;;;;;;;17.44;73.13;101075.50;5067573;28;20183;-78
2023/09/26 07:44:18;;;;;;;0.00;0.00;;;;;;;17.75;72.37;101094.34;5059782;28;20292;-79
2023/09/26 07:46:43;;;;;;;0.00;0.00;;;;;;;17.83;71.79;101087.13;5064153;28;20189;-79
2023/09/26 07:49:09;;;;;;;0.00;0.00;;;;;;;17.94;71.34;101091.06;5062728;28;20222;-79
2023/09/26 07:51:34;;;;;;;0.00;0.00;;;;;;;17.80;71.31;101074.81;5074540;28;20181;-79
2023/09/26 07:54:00;;;;;;;0.00;0.00;;;;;;;17.89;71.68;101080.19;5076853;28;20214;-79
2023/09/26 07:56:25;;;;;;;0.00;0.00;;;;;;;17.86;72.00;101074.56;5063288;28;20595;-80
2023/09/26 07:58:50;;;;;;;0.00;0.00;;;;;;;17.91;72.86;101077.88;5061947;28;20548;-79
2023/09/26 08:01:15;;;;;;;0.00;0.00;;;;;;;18.06;73.16;101074.44;5071657;28;20174;-80
2023/09/26 08:03:43;;;;;;;0.00;0.00;;;;;;;18.31;73.02;101093.78;5070834;28;20252;-80
2023/09/26 08:06:09;;;;;;;0.00;0.00;;;;;;;18.34;72.78;101093.09;5074315;28;20231;-80
2023/09/26 08:08:35;;;;;;;0.00;0.00;;;;;;;18.70;72.11;101098.59;5072675;28;20202;-80
2023/09/26 08:11:06;;;;;;;0.00;0.00;;;;;;;18.89;71.67;101103.47;5063162;28;20238;-80
2023/09/26 08:13:31;;;;;;;0.00;0.00;;;;;;;19.14;71.07;101106.16;5074035;28;20212;-81
2023/09/26 08:15:57;;;;;;;0.00;0.00;;;;;;;19.30;70.68;101115.31;5062895;28;20171;-80
2023/09/26 08:18:23;;;;;;;0.00;0.00;;;;;;;19.21;70.31;101081.41;5061943;28;20174;-80
2023/09/26 08:20:49;;;;;;;0.37;0.37;;;;;;;19.51;69.43;101090.13;5081056;28;20174;-79
2023/09/26 08:23:16;;;;;;;0.00;0.00;;;;;;;19.89;69.27;101104.22;5071635;28;20205;-80
2023/09/26 08:25:41;;;;;;;0.20;0.20;;;;;;;20.04;70.05;101116.47;5071348;28;20783;-82
2023/09/26 08:28:06;;;;;;;0.30;0.30;;;;;;;19.96;70.48;101100.00;5071056;28;20568;-83
2023/09/26 08:30:33;;;;;;;0.40;0.40;;;;;;;19.89;69.95;101093.13;5070980;28;20186;-80
2023/09/26 08:32:58;;;;;;;0.00;0.00;;;;;;;20.03;69.79;101091.88;5072208;28;20206;-79
2023/09/26 08:35:24;;;;;;;0.53;0.53;;;;;;;20.26;69.10;101089.25;5066245;28;20545;-79
2023/09/26 08:37:49;;;;;;;0.67;0.67;;;;;;;20.10;69.35;101081.75;5088826;28;20182;-79
2023/09/26 08:40:14;;;;;;;0.00;0.00;;;;;;;20.53;68.63;101093.84;5093364;28;20174;-79
2023/09/26 08:42:41;;;;;;;0.00;0.00;;;;;;;20.61;69.03;101106.72;5092122;28;20697;-80
2023/09/26 08:45:07;;;;;;;0.00;0.00;;;;;;;20.60;69.20;101088.47;5092834;28;20227;-79
2023/09/26 08:47:36;;;;;;;0.63;0.63;;;;;;;20.66;68.85;101095.31;5092676;28;20605;-81
2023/09/26 08:50:01;;;;;;;0.87;0.87;;;;;;;20.70;68.98;101093.44;5091882;28;20201;-79
2023/09/26 08:52:27;;;;;;;0.00;0.00;;;;;;;21.02;67.38;101099.66;5090649;28;20279;-78
2023/09/26 08:54:53;;;;;;;0.00;0.00;;;;;;;21.48;65.58;101101.75;5092636;28;20744;-79
2023/09/26 08:57:19;;;;;;;0.17;0.10;;;;;;;21.50;65.10;101082.72;5090286;28;20185;-79
2023/09/26 08:59:47;;;;;;;0.00;0.00;;;;;;;21.86;63.93;101098.88;5091419;28;20201;-78
2023/09/26 09:02:12;;;;;;;0.00;0.00;;;;;;;21.73;64.44;101083.53;5090877;28;20712;-79
2023/09/26 09:04:45;;;;;;;0.00;0.00;;;;;;;22.07;63.32;101094.84;5091933;28;20193;-78
2023/09/26 09:07:11;;;;;;;0.17;0.17;;;;;;;22.27;62.74;101090.75;5090953;28;20604;-80
2023/09/26 09:09:38;;;;;;;0.00;0.00;;;;;;;22.42;61.76;101089.00;5091867;28;20202;-79
2023/09/26 09:12:21;;;;;;;0.00;0.00;;;;;;;22.28;61.17;101056.22;5090470;28;20223;-80
2023/09/26 09:14:47;;;;;;;0.00;0.00;;;;;;;22.35;61.59;101074.97;5090358;28;20695;-79
2023/09/26 09:17:12;;;;;;;0.70;0.70;;;;;;;22.43;60.96;101069.16;5091664;28;20231;-80
2023/09/26 09:19:48;;;;;;;0.00;0.00;;;;;;;22.64;60.58;101071.41;5090646;28;20173;-80
2023/09/26 09:22:15;;;;;;;0.10;0.10;;;;;;;22.73;61.22;101079.50;5091781;28;20189;-80
2023/09/26 09:24:40;;;;;;;0.00;0.00;;;;;;;22.64;60.47;101046.34;5092448;28;20239;-79
2023/09/26 09:27:06;;;;;;;0.00;0.00;;;;;;;22.82;60.20;101049.34;5093808;28;20178;-80
2023/09/26 09:29:31;;;;;;;0.00;0.00;;;;;;;22.87;59.91;101045.47;5095626;28;20194;-79
2023/09/26 09:31:56;;;;;;;0.10;0.10;;;;;;;22.65;60.34;101033.22;5095978;28;20181;-79
2023/09/26 09:34:25;;;;;;;0.00;0.00;;;;;;;22.78;58.74;101024.22;5096835;28;20601;-80
2023/09/26 09:36:50;;;;;;;0.00;0.00;;;;;;;23.04;59.75;101047.63;5098517;28;20193;-80
2023/09/26 09:39:19;;;;;;;0.50;0.50;;;;;;;23.32;58.32;101052.72;5095904;28;20177;-83
2023/09/26 09:41:47;;;;;;;0.67;0.63;;;;;;;23.16;59.03;101033.44;5095810;28;20186;-80
2023/09/26 09:44:12;;;;;;;0.20;0.20;;;;;;;23.25;58.16;101033.09;5095774;28;20201;-80
2023/09/26 09:46:40;;;;;;;0.00;0.00;;;;;;;23.41;56.11;101031.66;5097271;28;20248;-80
2023/09/26 09:49:10;;;;;;;0.00;0.00;;;;;;;23.55;56.61;101031.00;5095710;28;20212;-79
2023/09/26 09:51:41;;;;;;;0.00;0.00;;;;;;;23.49;56.99;101024.19;5073745;28;20273;-80
2023/09/26 09:54:13;;;;;;;0.70;0.70;;;;;;;23.62;56.71;101025.53;5063988;28;20199;-80
2023/09/26 09:56:39;;;;;;;0.20;0.20;;;;;;;23.78;56.52;101039.19;5074786;28;20232;-80
2023/09/26 09:59:12;;;;;;;0.30;0.30;;;;;;;23.97;56.45;101047.31;5075100;28;20578;-80
2023/09/26 10:01:45;;;;;;;0.30;0.30;;;;;;;23.95;55.17;101021.78;5071929;28;20190;-79
2023/09/26 10:04:13;;;;;;;0.00;0.00;;;;;;;24.29;55.06;101038.31;5073318;28;20190;-81
2023/09/26 10:06:41;;;;;;;0.00;0.00;;;;;;;24.46;55.10;101054.44;5085103;28;20556;-80
2023/09/26 10:09:06;;;;;;;0.43;0.43;;;;;;;24.44;55.08;101023.28;5062333;28;20230;-80
2023/09/26 10:11:33;;;;;;;0.00;0.00;;;;;;;24.67;54.11;101042.53;5066072;28;20203;-79
2023/09/26 10:13:59;;;;;;;0.00;0.00;;;;;;;24.55;53.77;101020.53;5067752;28;20257;-80
2023/09/26 10:16:25;;;;;;;0.00;0.00;;;;;;;24.74;54.52;101042.59;5064000;28;20181;-83
2023/09/26 10:18:51;;;;;;;0.20;0.20;;;;;;;24.80;54.39;101037.41;5074111;28;20556;-79
2023/09/26 10:21:25;;;;;;;2.97;2.77;;;;;;;24.58;54.58;101019.75;5066501;28;20191;-82
2023/09/26 10:24:17;;;;;;;0.87;0.87;;;;;;;24.69;54.59;101019.78;5088613;28;20198;-80
2023/09/26 10:26:49;;;;;;;0.17;0.17;;;;;;;24.39;54.25;100998.50;5090779;28;20239;-80
2023/09/26 10:29:22;;;;;;;0.20;0.20;;;;;;;24.36;54.27;100985.34;5094597;28;20199;-80
2023/09/26 10:31:53;;;;;;;0.03;0.00;;;;;;;24.70;54.30;101022.19;5086826;28;20654;-80
2023/09/26 10:34:23;;;;;;;0.47;0.23;;;;;;;24.84;53.79;101011.06;5077504;28;20199;-80
2023/09/26 10:36:49;;;;;;;0.70;0.70;;;;;;;24.99;53.80;101011.09;5072733;28;20183;-80
2023/09/26 10:39:14;;;;;;;0.00;0.00;;;;;;;24.86;53.36;101003.06;5071485;28;20260;-80
2023/09/26 10:41:40;;;;;;;0.37;0.37;;;;;;;25.09;53.41;100999.16;5073986;28;20210;-80
2023/09/26 10:44:06;;;;;;;0.20;0.20;;;;;;;25.01;53.11;100998.34;5074266;28;20283;-81
2023/09/26 10:46:31;;;;;;;3.27;0.77;;;;;;;25.03;53.39;101000.78;5074402;28;20608;-82
2023/09/26 10:48:57;;;;;;;0.13;0.13;;;;;;;25.25;52.26;101001.59;5072855;28;20251;-81
2023/09/26 10:51:23;;;;;;;0.37;0.37;;;;;;;25.01;52.31;100964.78;5073044;28;20183;-82
2023/09/26 10:53:48;;;;;;;0.00;0.00;;;;;;;25.10;52.55;100986.78;5074049;28;20194;-80
2023/09/26 10:56:14;;;;;;;0.00;0.00;;;;;;;25.37;52.24;100988.00;5074117;28;20527;-81
2023/09/26 10:58:44;;;;;;;0.00;0.00;;;;;;;25.82;51.59;101013.59;5072809;28;20184;-80
2023/09/26 11:01:11;;;;;;;0.00;0.00;;;;;;;26.09;51.50;101011.97;5079389;28;20184;-82
2023/09/26 11:03:37;;;;;;;0.00;0.00;;;;;;;26.00;50.77;100986.38;5092796;28;20207;-81
2023/09/26 11:06:03;;;;;;;0.00;0.00;;;;;;;26.18;50.73;100994.72;5094365;28;20278;-80
2023/09/26 11:08:29;;;;;;;0.00;0.00;;;;;;;26.31;50.85;101003.47;5094221;28;20607;-81
2023/09/26 11:10:56;;;;;;;0.00;0.00;;;;;;;26.53;51.11;101007.06;5092757;28;20237;-81
2023/09/26 11:13:23;;;;;;;0.00;0.00;;;;;;;26.02;50.50;100966.34;5090177;28;20227;-81
2023/09/26 11:15:52;;;;;;;0.13;0.13;;;;;;;26.42;50.22;100986.66;5075816;28;20179;-81
2023/09/26 11:18:17;;;;;;;0.10;0.10;;;;;;;26.21;49.97;100954.72;5070937;28;20198;-81
2023/09/26 11:20:43;;;;;;;0.20;0.20;;;;;;;26.59;49.48;100966.16;5080186;28;20268;-80